Time;durP1;ratioP1;P1;durP2;ratioP2;P2;SDS_P1;SDS_P2;PMS_P1;PMS_P2;Temp;Humidity;BMP_temperature;BMP_pressure;BME280_temperature;BME280_humidity;BME280_pressure;Samples;Min_cycle;Max_cycle;Signal;HPM_P1;HPM_P2
2024/02/15 00:00:20;;;;;;;1.20;1.10;;;10.70;99.90;;;;;;5050862;28;20205;-73
2024/02/15 00:02:47;;;;;;;1.50;1.15;;;10.70;99.90;;;;;;5050788;28;20228;-73
2024/02/15 00:05:15;;;;;;;1.00;0.90;;;10.70;99.90;;;;;;5050814;28;20208;-73
2024/02/15 00:07:43;;;;;;;0.95;0.85;;;10.60;99.90;;;;;;5050540;28;20642;-73
2024/02/15 00:10:10;;;;;;;1.67;1.48;;;10.60;99.90;;;;;;5050582;28;20208;-73
2024/02/15 00:12:38;;;;;;;1.45;1.05;;;10.60;99.90;;;;;;5050632;28;20212;-72
2024/02/15 00:15:05;;;;;;;1.60;1.50;;;10.60;99.90;;;;;;5050643;28;20211;-73
2024/02/15 00:17:32;;;;;;;2.40;1.00;;;10.60;99.90;;;;;;5050621;28;20678;-73
2024/02/15 00:19:59;;;;;;;1.85;1.10;;;10.60;99.90;;;;;;5050685;28;20204;-74
2024/02/15 00:22:27;;;;;;;1.17;1.05;;;10.50;99.90;;;;;;5050344;28;20590;-73
2024/02/15 00:24:54;;;;;;;1.70;1.30;;;10.50;99.90;;;;;;5050893;28;20204;-73
2024/02/15 00:27:21;;;;;;;1.55;1.10;;;10.50;99.90;;;;;;5051167;28;20224;-73
2024/02/15 00:29:47;;;;;;;1.20;1.10;;;10.50;99.90;;;;;;5054590;28;20240;-73
2024/02/15 00:32:14;;;;;;;1.80;1.20;;;10.50;99.90;;;;;;5054548;28;20212;-73
2024/02/15 00:34:41;;;;;;;1.60;1.17;;;10.50;99.90;;;;;;5054419;28;20610;-73
2024/02/15 00:37:08;;;;;;;2.47;1.45;;;10.50;99.90;;;;;;5054145;28;20212;-73
2024/02/15 00:39:36;;;;;;;1.70;1.20;;;10.50;99.90;;;;;;5054260;28;20214;-73
2024/02/15 00:42:03;;;;;;;1.02;0.90;;;10.60;99.90;;;;;;5054589;28;20209;-73
2024/02/15 00:44:30;;;;;;;1.38;1.05;;;10.50;99.90;;;;;;5054093;28;20224;-73
2024/02/15 00:46:57;;;;;;;2.97;1.65;;;10.50;99.90;;;;;;5054324;28;20251;-73
2024/02/15 00:49:23;;;;;;;1.20;0.90;;;10.50;99.90;;;;;;5054119;28;20243;-72
2024/02/15 00:51:51;;;;;;;1.40;1.25;;;10.50;99.90;;;;;;5054175;28;20207;-73
2024/02/15 00:54:18;;;;;;;2.17;1.40;;;10.50;99.90;;;;;;5054031;28;20709;-73
2024/02/15 00:56:46;;;;;;;1.35;1.10;;;10.40;99.90;;;;;;5054190;28;20295;-73
2024/02/15 00:59:12;;;;;;;1.52;1.25;;;10.40;99.90;;;;;;5051324;28;20216;-73
2024/02/15 01:01:40;;;;;;;2.03;1.20;;;10.30;99.90;;;;;;5053922;28;20208;-73
2024/02/15 01:04:07;;;;;;;1.17;1.02;;;10.30;99.90;;;;;;5053792;28;20227;-73
2024/02/15 01:06:34;;;;;;;1.17;1.05;;;10.20;99.90;;;;;;5054084;28;20215;-73
2024/02/15 01:09:02;;;;;;;1.95;1.20;;;10.20;99.90;;;;;;5053702;28;20219;-72
2024/02/15 01:11:29;;;;;;;5.05;1.40;;;10.20;99.90;;;;;;5053751;28;20205;-73
2024/02/15 01:13:57;;;;;;;5.88;1.85;;;10.10;99.90;;;;;;5053866;28;20238;-73
2024/02/15 01:16:24;;;;;;;2.22;1.30;;;10.10;99.90;;;;;;5054280;28;20631;-73
2024/02/15 01:18:51;;;;;;;1.65;1.17;;;10.10;99.90;;;;;;5053979;28;20583;-72
2024/02/15 01:21:19;;;;;;;1.55;1.35;;;10.10;99.90;;;;;;5053857;28;20208;-73
2024/02/15 01:23:46;;;;;;;1.70;1.40;;;10.10;99.90;;;;;;5054393;28;20634;-73
2024/02/15 01:26:14;;;;;;;1.90;1.17;;;10.10;99.90;;;;;;5051232;28;20208;-73
2024/02/15 01:28:43;;;;;;;2.60;1.40;;;10.10;99.90;;;;;;5053517;28;20220;-73
2024/02/15 01:31:12;;;;;;;1.65;1.13;;;10.10;99.90;;;;;;5053568;28;20603;-73
2024/02/15 01:33:39;;;;;;;1.50;1.40;;;10.20;99.90;;;;;;5053394;28;20224;-73
2024/02/15 01:36:07;;;;;;;1.60;1.50;;;10.10;99.90;;;;;;5053545;28;20214;-73
2024/02/15 01:38:34;;;;;;;1.50;1.33;;;10.10;99.90;;;;;;5052639;28;20262;-73
2024/02/15 01:41:01;;;;;;;1.75;1.08;;;10.10;99.90;;;;;;5052976;28;20231;-73
2024/02/15 01:43:28;;;;;;;2.15;1.60;;;10.10;99.90;;;;;;5052924;28;20723;-73
2024/02/15 01:45:56;;;;;;;2.78;1.25;;;10.10;99.90;;;;;;5053349;28;20210;-73
2024/02/15 01:48:25;;;;;;;2.75;1.35;;;10.00;99.90;;;;;;5052998;28;20259;-73
2024/02/15 01:50:52;;;;;;;2.75;1.42;;;10.00;99.90;;;;;;5053068;28;20223;-73
2024/02/15 01:53:19;;;;;;;1.50;1.40;;;9.90;99.90;;;;;;5052913;28;20243;-73
2024/02/15 01:55:45;;;;;;;1.20;1.08;;;9.90;99.90;;;;;;5053127;28;20205;-73
2024/02/15 01:58:12;;;;;;;1.70;1.50;;;9.80;99.90;;;;;;5049755;28;20591;-74
2024/02/15 02:00:40;;;;;;;1.25;1.15;;;9.80;99.90;;;;;;5052919;28;20211;-73
2024/02/15 02:03:07;;;;;;;2.50;1.52;;;9.70;99.90;;;;;;5052855;28;20232;-73
2024/02/15 02:05:35;;;;;;;1.65;1.55;;;9.60;99.90;;;;;;5052706;28;20204;-73
2024/02/15 02:08:04;;;;;;;1.95;1.30;;;9.50;99.90;;;;;;5052674;28;20235;-73
2024/02/15 02:10:32;;;;;;;2.35;1.20;;;9.50;99.90;;;;;;5052605;28;20663;-73
2024/02/15 02:13:00;;;;;;;1.55;1.38;;;9.50;99.90;;;;;;5052843;28;20734;-73
2024/02/15 02:15:28;;;;;;;1.70;1.48;;;9.40;99.90;;;;;;5052639;28;20203;-73
2024/02/15 02:17:54;;;;;;;1.50;1.33;;;9.40;99.90;;;;;;5052904;28;20255;-73
2024/02/15 02:20:21;;;;;;;1.10;1.00;;;9.30;99.90;;;;;;5052571;28;20221;-73
2024/02/15 02:22:55;;;;;;;4.53;1.30;;;9.20;99.90;;;;;;5052363;28;20222;-73
2024/02/15 02:25:26;;;;;;;1.42;1.33;;;9.20;99.90;;;;;;5052526;28;20267;-73
2024/02/15 02:27:53;;;;;;;1.08;0.98;;;9.10;99.90;;;;;;5052259;28;20207;-74
2024/02/15 02:30:22;;;;;;;1.20;1.10;;;9.00;99.90;;;;;;5052340;28;20211;-73
2024/02/15 02:32:48;;;;;;;3.10;1.60;;;8.90;99.90;;;;;;5052248;28;20218;-73
2024/02/15 02:35:15;;;;;;;1.60;1.20;;;8.80;99.90;;;;;;5052443;28;20582;-73
2024/02/15 02:37:43;;;;;;;1.65;1.05;;;8.80;99.90;;;;;;5048173;28;20650;-73
2024/02/15 02:40:12;;;;;;;3.30;1.50;;;8.80;99.90;;;;;;5052116;28;20274;-73
2024/02/15 02:42:48;;;;;;;1.30;1.20;;;8.70;99.90;;;;;;5052046;28;20225;-73
2024/02/15 02:45:14;;;;;;;1.60;1.13;;;8.60;99.90;;;;;;5048368;28;20693;-73
2024/02/15 02:47:41;;;;;;;1.20;0.95;;;8.50;99.90;;;;;;5051820;28;20216;-73
2024/02/15 02:50:09;;;;;;;1.40;1.00;;;8.50;99.90;;;;;;5051727;28;20253;-73
2024/02/15 02:52:38;;;;;;;1.17;1.08;;;8.50;99.90;;;;;;5051037;28;20584;-73
2024/02/15 02:55:07;;;;;;;4.13;1.20;;;8.50;99.90;;;;;;5051892;28;20292;-73
2024/02/15 02:57:35;;;;;;;2.17;1.50;;;8.50;99.90;;;;;;5051592;28;20300;-73
2024/02/15 03:00:07;;;;;;;1.25;1.15;;;8.40;99.90;;;;;;5051869;28;20202;-73
2024/02/15 03:02:34;;;;;;;1.48;1.35;;;8.40;99.90;;;;;;5051494;28;20213;-73
2024/02/15 03:05:02;;;;;;;2.50;1.25;;;8.40;99.90;;;;;;5051917;28;20223;-73
2024/02/15 03:07:29;;;;;;;1.98;1.33;;;8.40;99.90;;;;;;5051680;28;20249;-74
2024/02/15 03:09:56;;;;;;;2.28;1.42;;;8.30;99.90;;;;;;5051526;28;20218;-73
2024/02/15 03:12:22;;;;;;;1.30;1.20;;;8.30;99.90;;;;;;5051340;28;20617;-74
2024/02/15 03:14:49;;;;;;;1.60;1.40;;;8.30;99.90;;;;;;5051506;28;20207;-73
2024/02/15 03:17:17;;;;;;;1.25;1.15;;;8.30;99.90;;;;;;5051447;28;20203;-73
2024/02/15 03:19:44;;;;;;;1.70;1.27;;;8.20;99.90;;;;;;5051273;28;20197;-73
2024/02/15 03:22:13;;;;;;;1.45;1.05;;;8.20;99.90;;;;;;5051310;28;20217;-73
2024/02/15 03:24:40;;;;;;;1.48;1.23;;;8.20;99.90;;;;;;5051219;28;20634;-73
2024/02/15 03:27:06;;;;;;;2.15;1.10;;;8.20;99.90;;;;;;5050700;28;20217;-73
2024/02/15 03:29:35;;;;;;;1.30;1.17;;;8.10;99.90;;;;;;5051022;28;20229;-73
2024/02/15 03:32:03;;;;;;;3.03;1.70;;;8.10;99.90;;;;;;5051092;28;20735;-73
2024/02/15 03:34:32;;;;;;;1.35;1.25;;;8.00;99.90;;;;;;5051036;28;20629;-73
2024/02/15 03:36:58;;;;;;;2.60;2.03;;;8.00;99.90;;;;;;5051299;28;20581;-73
2024/02/15 03:39:25;;;;;;;2.47;1.35;;;8.00;99.90;;;;;;5050982;28;20201;-73
2024/02/15 03:41:53;;;;;;;1.20;0.98;;;8.00;99.90;;;;;;5050970;28;20212;-73
2024/02/15 03:44:20;;;;;;;2.78;1.67;;;8.00;99.90;;;;;;5051178;28;20236;-73
2024/02/15 03:46:50;;;;;;;1.60;1.23;;;8.00;99.90;;;;;;5050761;28;20209;-72
2024/02/15 03:49:17;;;;;;;2.28;1.55;;;8.00;99.90;;;;;;5051145;28;20714;-73
2024/02/15 03:51:45;;;;;;;1.70;1.13;;;8.00;99.90;;;;;;5050776;28;20209;-73
2024/02/15 03:54:12;;;;;;;1.30;1.00;;;8.00;99.90;;;;;;5046075;28;20723;-73
2024/02/15 03:56:47;;;;;;;3.90;1.98;;;8.00;99.90;;;;;;5050994;28;20659;-73
2024/02/15 03:59:14;;;;;;;1.10;1.00;;;8.00;99.90;;;;;;5046194;28;20205;-73
2024/02/15 04:01:41;;;;;;;1.52;1.30;;;8.00;99.90;;;;;;5050432;28;20212;-73
2024/02/15 04:04:07;;;;;;;2.10;1.23;;;8.00;99.90;;;;;;5050807;28;20225;-73
2024/02/15 04:06:34;;;;;;;1.45;1.05;;;8.10;99.90;;;;;;5050778;28;20232;-73
2024/02/15 04:09:02;;;;;;;1.25;1.13;;;8.10;99.90;;;;;;5050609;28;20262;-72
2024/02/15 04:11:29;;;;;;;1.23;1.13;;;8.30;99.90;;;;;;5050714;28;20592;-72
2024/02/15 04:13:57;;;;;;;1.10;0.95;;;8.30;99.90;;;;;;5050627;28;20217;-72
2024/02/15 04:16:25;;;;;;;1.52;1.30;;;8.30;99.90;;;;;;5048621;28;20197;-72
2024/02/15 04:18:52;;;;;;;2.42;2.22;;;8.40;99.90;;;;;;5049990;28;20263;-73
2024/02/15 04:21:19;;;;;;;2.15;1.17;;;8.40;99.90;;;;;;5050715;28;20655;-74
2024/02/15 04:23:46;;;;;;;2.55;1.70;;;8.40;99.90;;;;;;5050282;28;20324;-74
2024/02/15 04:26:14;;;;;;;2.05;1.40;;;8.40;99.90;;;;;;5047915;28;20202;-74
2024/02/15 04:28:42;;;;;;;1.20;1.10;;;8.50;99.90;;;;;;5047335;28;20221;-73
2024/02/15 04:31:09;;;;;;;1.52;1.30;;;8.50;99.90;;;;;;5050011;28;20213;-73
2024/02/15 04:33:36;;;;;;;1.90;1.50;;;8.50;99.90;;;;;;5049836;28;20221;-73
2024/02/15 04:36:06;;;;;;;2.22;1.13;;;8.60;99.90;;;;;;5047747;28;20206;-73
2024/02/15 04:38:34;;;;;;;1.80;1.50;;;8.70;99.90;;;;;;5049993;28;20206;-73
2024/02/15 04:41:01;;;;;;;1.60;1.13;;;8.70;99.90;;;;;;5050105;28;20221;-73
2024/02/15 04:43:29;;;;;;;1.30;1.10;;;8.80;99.90;;;;;;5050220;28;20227;-73
2024/02/15 04:45:55;;;;;;;4.28;1.67;;;8.80;99.90;;;;;;5047974;28;20658;-73
2024/02/15 04:48:24;;;;;;;2.17;1.77;;;8.80;99.90;;;;;;5047544;28;20210;-73
2024/02/15 04:50:52;;;;;;;1.67;1.20;;;8.80;99.90;;;;;;5049641;28;20235;-73
2024/02/15 04:53:18;;;;;;;1.63;1.25;;;8.80;99.90;;;;;;5050008;28;20765;-74
2024/02/15 04:55:45;;;;;;;1.50;1.38;;;8.80;99.90;;;;;;5049896;28;20253;-73
2024/02/15 04:58:12;;;;;;;2.75;1.48;;;8.90;99.90;;;;;;5047245;28;20206;-73
2024/02/15 05:00:42;;;;;;;1.92;1.75;;;8.90;99.90;;;;;;5044235;28;20199;-73
2024/02/15 05:03:09;;;;;;;1.98;1.30;;;8.90;99.90;;;;;;5046809;28;20231;-73
2024/02/15 05:05:35;;;;;;;1.83;1.35;;;8.90;99.90;;;;;;5048915;28;20947;-72
2024/02/15 05:08:03;;;;;;;1.67;1.20;;;8.90;99.90;;;;;;5050110;28;20226;-72
2024/02/15 05:10:30;;;;;;;2.58;1.55;;;8.90;99.90;;;;;;5047672;28;20220;-72
2024/02/15 05:12:57;;;;;;;1.63;1.50;;;8.90;99.90;;;;;;5049452;28;20220;-72
2024/02/15 05:15:25;;;;;;;1.52;1.20;;;8.90;99.90;;;;;;5052437;28;20208;-72
2024/02/15 05:17:54;;;;;;;1.55;1.20;;;8.90;99.90;;;;;;5053389;28;20205;-72
2024/02/15 05:20:20;;;;;;;3.97;1.35;;;8.90;99.90;;;;;;5050846;28;20581;-72
2024/02/15 05:22:47;;;;;;;1.75;1.23;;;8.90;99.90;;;;;;5053111;28;20219;-72
2024/02/15 05:25:15;;;;;;;2.00;1.30;;;9.00;99.90;;;;;;5053787;28;20575;-72
2024/02/15 05:27:42;;;;;;;6.05;1.50;;;9.00;99.90;;;;;;5053380;28;20207;-72
2024/02/15 05:30:11;;;;;;;1.40;1.02;;;8.90;99.90;;;;;;5053487;28;20229;-72
2024/02/15 05:32:41;;;;;;;3.67;1.50;;;8.90;99.90;;;;;;5053278;28;20235;-72
2024/02/15 05:35:09;;;;;;;1.10;1.00;;;8.90;99.90;;;;;;5053616;28;20259;-72
2024/02/15 05:37:36;;;;;;;1.60;1.38;;;8.90;99.90;;;;;;5053203;28;20595;-72
2024/02/15 05:40:03;;;;;;;3.75;2.00;;;8.90;99.90;;;;;;5053009;28;20206;-72
2024/02/15 05:42:31;;;;;;;1.45;1.30;;;8.90;99.90;;;;;;5053329;28;20257;-72
2024/02/15 05:45:32;;;;;;;1.20;1.10;;;8.90;99.90;;;;;;5052943;28;20209;-72
2024/02/15 05:48:00;;;;;;;1.95;1.42;;;8.90;99.90;;;;;;5051238;28;20644;-71
2024/02/15 05:50:29;;;;;;;2.28;1.70;;;8.90;99.90;;;;;;5053012;28;20225;-72
2024/02/15 05:52:58;;;;;;;1.55;1.20;;;8.90;99.90;;;;;;5052526;28;20308;-72
2024/02/15 05:55:26;;;;;;;1.75;1.45;;;8.90;99.90;;;;;;5053359;28;20298;-72
2024/02/15 05:57:53;;;;;;;1.70;1.50;;;8.90;99.90;;;;;;5052599;28;20293;-72
2024/02/15 06:00:20;;;;;;;3.50;1.27;;;8.80;99.90;;;;;;5053004;28;20202;-72
2024/02/15 06:02:47;;;;;;;1.35;1.23;;;8.80;99.90;;;;;;5052491;28;20232;-72
2024/02/15 06:05:16;;;;;;;1.75;1.60;;;8.80;99.90;;;;;;5052973;28;20394;-72
2024/02/15 06:07:45;;;;;;;1.25;1.15;;;8.80;99.90;;;;;;5052522;28;20213;-72
2024/02/15 06:10:13;;;;;;;2.70;2.05;;;8.80;99.90;;;;;;5046225;28;20697;-72
2024/02/15 06:12:40;;;;;;;2.00;1.83;;;8.80;99.90;;;;;;5052552;28;20250;-72
2024/02/15 06:15:14;;;;;;;1.67;1.58;;;8.80;99.90;;;;;;5052668;28;20215;-72
2024/02/15 06:17:41;;;;;;;2.85;1.50;;;8.80;99.90;;;;;;5052966;28;20686;-72
2024/02/15 06:20:11;;;;;;;1.92;1.38;;;8.80;99.90;;;;;;5053349;28;20214;-72
2024/02/15 06:22:39;;;;;;;1.73;1.42;;;8.70;99.90;;;;;;5052385;28;20210;-72
2024/02/15 06:25:09;;;;;;;3.30;1.58;;;8.70;99.90;;;;;;5053365;28;20302;-72
2024/02/15 06:27:40;;;;;;;2.28;1.40;;;8.70;99.90;;;;;;5052605;28;20232;-72
2024/02/15 06:41:06;;;;;;;1.30;1.20;;;8.50;99.90;;;;;;5051226;28;20240;-72
2024/02/15 06:43:34;;;;;;;1.67;1.30;;;8.50;99.90;;;;;;5052089;28;20222;-72
2024/02/15 06:46:01;;;;;;;2.13;1.67;;;8.50;99.90;;;;;;5052031;28;20205;-72
2024/02/15 06:48:28;;;;;;;1.40;1.30;;;8.50;99.90;;;;;;5052093;28;20243;-72
2024/02/15 06:50:55;;;;;;;1.90;1.80;;;8.50;99.90;;;;;;5051749;28;20226;-72
2024/02/15 06:53:22;;;;;;;1.40;1.30;;;8.50;99.90;;;;;;5051192;28;20718;-72
2024/02/15 06:55:49;;;;;;;1.52;1.42;;;8.50;99.90;;;;;;5049651;28;20324;-72
2024/02/15 06:58:17;;;;;;;3.13;2.00;;;8.60;99.90;;;;;;5049730;28;20260;-73
2024/02/15 07:00:44;;;;;;;5.03;1.70;;;8.60;99.90;;;;;;5051897;28;20596;-73
2024/02/15 07:03:11;;;;;;;1.65;1.50;;;8.60;99.90;;;;;;5051598;28;20226;-72
2024/02/15 07:05:39;;;;;;;2.20;2.00;;;8.70;99.90;;;;;;5052069;28;20623;-72
2024/02/15 07:08:07;;;;;;;1.40;1.20;;;8.70;99.90;;;;;;5051186;28;20208;-72
2024/02/15 07:10:33;;;;;;;1.40;1.30;;;8.80;99.90;;;;;;5051809;28;20604;-72
2024/02/15 07:13:00;;;;;;;3.38;1.40;;;8.90;99.90;;;;;;5050729;28;20232;-72
2024/02/15 07:15:31;;;;;;;1.40;1.30;;;9.00;99.90;;;;;;5051694;28;20205;-72
2024/02/15 07:17:58;;;;;;;1.67;1.45;;;9.10;99.90;;;;;;5051147;28;20216;-72
2024/02/15 07:20:25;;;;;;;2.10;1.30;;;9.20;99.90;;;;;;5051856;28;20540;-73
2024/02/15 07:22:53;;;;;;;1.85;1.50;;;9.40;99.90;;;;;;5050983;28;20266;-72
2024/02/15 07:25:19;;;;;;;2.30;1.65;;;9.50;99.90;;;;;;5051415;28;20687;-72
2024/02/15 07:27:46;;;;;;;1.42;1.30;;;9.60;99.90;;;;;;5051298;28;20223;-73
2024/02/15 07:30:14;;;;;;;1.55;1.30;;;9.70;99.90;;;;;;5043565;28;20690;-73
2024/02/15 07:32:42;;;;;;;3.75;1.40;;;9.80;99.90;;;;;;5051381;28;20239;-73
2024/02/15 07:35:09;;;;;;;1.65;1.45;;;9.90;99.90;;;;;;5051127;28;20214;-73
2024/02/15 07:37:36;;;;;;;1.90;1.30;;;9.90;99.90;;;;;;5050480;28;20220;-73
2024/02/15 07:40:03;;;;;;;1.90;1.60;;;10.00;99.90;;;;;;5050704;28;20210;-73
2024/02/15 07:42:30;;;;;;;2.63;2.42;;;10.30;99.90;;;;;;5051329;28;20211;-72
2024/02/15 07:44:57;;;;;;;1.85;1.52;;;10.90;99.90;;;;;;5043354;28;20573;-72
2024/02/15 07:47:24;;;;;;;1.77;1.48;;;11.80;99.90;;;;;;5048063;28;20212;-73
2024/02/15 07:49:52;;;;;;;1.77;1.40;;;13.10;99.90;;;;;;5050470;28;20225;-73
2024/02/15 07:52:19;;;;;;;2.90;1.37;;;14.40;99.90;;;;;;5050315;28;20466;-73
2024/02/15 07:54:46;;;;;;;3.93;1.90;;;15.20;99.90;;;;;;5050823;28;20971;-73
2024/02/15 07:57:14;;;;;;;2.70;1.60;;;15.80;99.90;;;;;;5048399;28;20460;-73
2024/02/15 07:59:42;;;;;;;1.50;1.40;;;16.50;99.90;;;;;;5051022;28;20517;-73
2024/02/15 08:02:09;;;;;;;3.00;1.40;;;17.20;99.90;;;;;;5050360;28;20466;-73
2024/02/15 08:04:40;;;;;;;1.30;1.10;;;17.30;99.90;;;;;;5050435;28;20471;-73
2024/02/15 08:07:10;;;;;;;2.50;1.53;;;16.50;99.90;;;;;;5049761;28;20549;-73
2024/02/15 08:09:37;;;;;;;1.50;1.40;;;16.60;99.90;;;;;;5050743;28;20463;-72
2024/02/15 08:12:04;;;;;;;1.50;1.40;;;16.70;99.90;;;;;;5049854;28;20823;-72
2024/02/15 08:14:31;;;;;;;1.40;1.27;;;16.60;99.90;;;;;;5050744;28;20495;-72
2024/02/15 08:16:58;;;;;;;2.50;1.80;;;15.80;99.90;;;;;;5049520;28;20509;-72
2024/02/15 08:19:24;;;;;;;2.60;1.57;;;15.00;99.90;;;;;;5050745;28;20460;-72
2024/02/15 08:21:52;;;;;;;1.60;1.43;;;14.60;99.90;;;;;;5050212;28;20463;-72
2024/02/15 08:24:20;;;;;;;2.03;1.50;;;14.80;99.90;;;;;;5050658;28;20852;-72
2024/02/15 08:26:47;;;;;;;2.70;1.40;;;15.00;99.90;;;;;;5050423;28;20459;-73
2024/02/15 08:29:14;;;;;;;1.30;1.20;;;15.10;99.90;;;;;;5049458;28;20462;-72
2024/02/15 08:31:42;;;;;;;2.70;1.63;;;15.30;99.90;;;;;;5050448;28;20483;-73
2024/02/15 08:34:10;;;;;;;1.20;1.10;;;15.70;99.90;;;;;;5050444;28;20483;-73
2024/02/15 08:36:39;;;;;;;1.93;1.40;;;15.80;99.90;;;;;;5050288;28;20506;-73
2024/02/15 08:39:08;;;;;;;1.30;1.20;;;15.60;99.90;;;;;;5050024;28;20463;-73
2024/02/15 08:41:36;;;;;;;1.10;1.00;;;15.60;99.90;;;;;;5049668;28;20460;-72
2024/02/15 08:44:08;;;;;;;2.00;1.20;;;15.30;99.90;;;;;;5049721;28;21000;-73
2024/02/15 08:46:36;;;;;;;1.97;1.17;;;14.70;99.90;;;;;;5050161;28;20529;-73
2024/02/15 08:49:02;;;;;;;1.40;1.20;;;14.30;99.90;;;;;;5050292;28;20466;-73
2024/02/15 08:51:30;;;;;;;1.97;1.40;;;13.80;99.90;;;;;;5054001;28;20541;-73
2024/02/15 08:53:56;;;;;;;1.50;1.40;;;13.70;99.90;;;;;;5053931;28;20475;-73
2024/02/15 08:56:24;;;;;;;2.40;1.80;;;13.80;99.90;;;;;;5053521;28;20459;-73
2024/02/15 08:58:52;;;;;;;1.57;1.20;;;14.10;99.90;;;;;;5054113;28;20538;-73
2024/02/15 09:01:19;;;;;;;2.10;1.43;;;14.20;99.90;;;;;;5046235;28;20460;-73
2024/02/15 09:03:46;;;;;;;1.13;1.03;;;14.50;99.90;;;;;;5053836;28;20475;-73
2024/02/15 09:06:13;;;;;;;2.43;1.97;;;14.70;99.90;;;;;;5052519;28;20478;-73
2024/02/15 09:08:40;;;;;;;2.80;1.63;;;15.40;99.90;;;;;;5053697;28;20456;-73
2024/02/15 09:11:11;;;;;;;1.70;1.50;;;16.30;99.90;;;;;;5053118;28;20487;-73
2024/02/15 09:13:38;;;;;;;3.50;1.80;;;17.40;99.90;;;;;;5054045;28;20858;-73
2024/02/15 09:16:07;;;;;;;1.90;1.60;;;18.50;99.90;;;;;;5051314;28;20459;-73
2024/02/15 09:18:34;;;;;;;2.90;1.90;;;19.40;99.90;;;;;;5053707;28;20470;-73
2024/02/15 09:21:04;;;;;;;1.73;1.60;;;20.40;99.90;;;;;;5052664;28;20466;-73
2024/02/15 09:23:32;;;;;;;1.87;1.50;;;21.20;99.90;;;;;;5053408;28;20479;-73
2024/02/15 09:25:59;;;;;;;1.97;1.47;;;21.80;99.90;;;;;;5053225;28;20463;-73
2024/02/15 09:28:26;;;;;;;2.50;1.90;;;22.40;99.90;;;;;;5053299;28;20466;-73
2024/02/15 09:30:53;;;;;;;3.47;1.63;;;22.80;99.90;;;;;;5052956;28;20533;-73
2024/02/15 09:33:22;;;;;;;3.50;2.10;;;23.30;99.90;;;;;;5052887;28;20580;-73
2024/02/15 09:35:49;;;;;;;2.00;1.80;;;23.70;99.90;;;;;;5052905;28;20550;-73
2024/02/15 09:38:19;;;;;;;2.53;2.20;;;24.10;99.70;;;;;;5053001;28;20466;-73
2024/02/15 09:40:50;;;;;;;2.40;1.60;;;24.60;99.60;;;;;;5051522;28;20824;-73
2024/02/15 09:43:17;;;;;;;2.70;2.03;;;25.10;98.50;;;;;;5052338;28;20479;-73
2024/02/15 09:45:44;;;;;;;2.20;1.97;;;24.60;98.50;;;;;;5052957;28;20731;-73
2024/02/15 09:48:12;;;;;;;2.70;2.27;;;24.60;98.50;;;;;;5052716;28;20546;-73
2024/02/15 09:50:43;;;;;;;2.87;1.80;;;25.00;98.20;;;;;;5052910;28;20545;-72
2024/02/15 09:53:10;;;;;;;1.80;1.67;;;25.20;97.20;;;;;;5052448;28;20483;-72
2024/02/15 09:55:42;;;;;;;2.47;1.80;;;25.30;97.50;;;;;;5052714;28;20551;-72
2024/02/15 09:58:10;;;;;;;2.23;1.87;;;25.80;96.80;;;;;;5052214;28;20918;-72
2024/02/15 10:00:37;;;;;;;1.87;1.67;;;26.20;96.20;;;;;;5052271;28;20456;-72
2024/02/15 10:03:07;;;;;;;4.43;1.80;;;26.20;95.20;;;;;;5052439;28;20537;-72
2024/02/15 10:05:34;;;;;;;4.03;1.90;;;26.10;95.30;;;;;;5052626;28;20513;-73
2024/02/15 10:08:04;;;;;;;2.07;1.87;;;26.50;94.50;;;;;;5052648;28;20459;-72
2024/02/15 10:10:33;;;;;;;3.27;1.60;;;26.80;94.60;;;;;;5052352;28;20479;-72
2024/02/15 10:13:01;;;;;;;2.07;1.67;;;26.90;93.80;;;;;;5052358;28;20475;-72
2024/02/15 10:15:36;;;;;;;1.57;1.47;;;27.10;93.60;;;;;;5052494;28;21027;-72
2024/02/15 10:18:05;;;;;;;1.50;1.33;;;26.90;92.80;;;;;;5052076;28;20548;-73
2024/02/15 10:20:34;;;;;;;2.70;1.50;;;27.30;93.20;;;;;;5052820;28;20464;-73
2024/02/15 10:23:12;;;;;;;2.17;1.50;;;27.60;92.90;;;;;;5051642;28;20507;-73
2024/02/15 10:25:42;;;;;;;4.50;1.57;;;28.10;92.40;;;;;;5052169;28;20459;-73
2024/02/15 10:28:15;;;;;;;1.10;1.00;;;28.50;91.30;;;;;;5052236;28;20478;-73
2024/02/15 10:30:45;;;;;;;4.13;1.50;;;29.00;90.40;;;;;;5051381;28;20484;-73
2024/02/15 10:33:20;;;;;;;1.60;1.20;;;29.20;88.90;;;;;;5049467;28;20541;-73
2024/02/15 10:35:48;;;;;;;1.67;1.50;;;28.50;89.50;;;;;;5051588;28;20821;-73
2024/02/15 10:38:18;;;;;;;1.50;1.10;;;28.30;89.40;;;;;;5051511;28;20978;-73
2024/02/15 10:40:45;;;;;;;1.90;1.50;;;27.70;90.10;;;;;;5052034;28;20617;-73
2024/02/15 10:43:13;;;;;;;1.40;1.07;;;27.60;90.50;;;;;;5051785;28;20632;-73
2024/02/15 10:45:44;;;;;;;3.47;1.47;;;27.40;90.10;;;;;;5051915;28;20881;-73
2024/02/15 10:48:12;;;;;;;1.10;1.00;;;27.50;90.20;;;;;;5051090;28;20483;-73
2024/02/15 10:50:41;;;;;;;1.73;1.57;;;27.60;90.60;;;;;;5051584;28;21007;-73
2024/02/15 10:53:20;;;;;;;3.53;1.83;;;27.90;90.30;;;;;;5051484;28;20491;-73
2024/02/15 10:56:01;;;;;;;4.20;1.50;;;27.60;90.60;;;;;;5051689;28;20462;-72
2024/02/15 10:58:35;;;;;;;2.70;1.50;;;27.70;90.10;;;;;;5051253;28;20459;-73
2024/02/15 11:01:03;;;;;;;1.77;1.50;;;28.00;90.10;;;;;;5050851;28;20452;-73
2024/02/15 11:03:36;;;;;;;1.33;1.10;;;28.30;89.50;;;;;;5048324;28;21010;-73
2024/02/15 11:06:07;;;;;;;2.10;1.50;;;27.60;89.50;;;;;;5050004;28;20460;-73
2024/02/15 11:08:35;;;;;;;1.53;1.40;;;27.50;89.90;;;;;;5049395;28;20952;-73
2024/02/15 11:11:04;;;;;;;2.57;2.00;;;27.20;90.50;;;;;;5051408;28;20570;-73
2024/02/15 11:13:34;;;;;;;3.10;1.73;;;27.40;91.00;;;;;;5051005;28;20491;-73
2024/02/15 11:16:01;;;;;;;2.27;1.30;;;28.30;90.60;;;;;;5045784;28;20463;-72
2024/02/15 11:18:46;;;;;;;2.73;1.37;;;28.10;89.60;;;;;;5043165;28;20491;-73
2024/02/15 11:21:13;;;;;;;1.97;1.50;;;28.20;90.60;;;;;;5048646;28;20483;-74
2024/02/15 11:23:40;;;;;;;3.60;1.47;;;28.00;90.20;;;;;;5051300;28;20475;-74
2024/02/15 11:26:31;;;;;;;1.63;1.53;;;27.70;90.50;;;;;;5049078;28;20464;-74
2024/02/15 11:28:58;;;;;;;1.47;1.37;;;27.80;90.60;;;;;;5051126;28;20515;-74
2024/02/15 11:32:01;;;;;;;1.33;1.10;;;27.70;90.10;;;;;;5051165;28;20491;-74
2024/02/15 11:34:45;;;;;;;1.50;1.10;;;27.80;89.70;;;;;;5045856;28;20483;-74
2024/02/15 11:37:46;;;;;;;2.70;1.43;;;28.40;89.60;;;;;;5050528;28;20999;-74
2024/02/15 11:40:12;;;;;;;2.30;1.30;;;28.50;88.60;;;;;;5047510;28;20971;-74
2024/02/15 11:42:40;;;;;;;2.87;1.57;;;27.90;87.90;;;;;;5051180;28;21105;-74
2024/02/15 11:45:08;;;;;;;1.57;0.93;;;27.20;87.80;;;;;;5050716;28;21007;-74
2024/02/15 11:47:42;;;;;;;1.20;0.87;;;26.10;88.20;;;;;;5045400;28;20460;-73
2024/02/15 11:50:12;;;;;;;2.00;1.00;;;25.70;89.80;;;;;;5050588;28;20456;-73
2024/02/15 11:52:39;;;;;;;1.00;0.80;;;25.80;90.10;;;;;;5045916;28;20574;-73
2024/02/15 11:55:09;;;;;;;1.03;0.90;;;25.90;89.90;;;;;;5050848;28;20460;-74
2024/02/15 11:57:47;;;;;;;1.40;1.00;;;25.50;89.40;;;;;;5045943;28;20913;-74
2024/02/15 12:19:44;;;;;;;1.20;1.00;;;23.80;91.00;;;;;;5047012;28;20454;-73
2024/02/15 12:22:11;;;;;;;1.50;1.33;;;23.50;90.90;;;;;;5049973;28;20475;-73
2024/02/15 12:24:38;;;;;;;1.10;0.90;;;23.30;91.40;;;;;;5053257;28;20517;-73
2024/02/15 12:27:05;;;;;;;1.50;1.30;;;23.20;91.50;;;;;;5054040;28;20467;-73
2024/02/15 12:29:32;;;;;;;2.03;1.07;;;23.00;91.90;;;;;;5053992;28;20517;-73
2024/02/15 12:32:00;;;;;;;1.40;1.10;;;22.90;92.10;;;;;;5054145;28;20566;-73
2024/02/15 12:34:27;;;;;;;1.77;1.30;;;22.80;92.40;;;;;;5054432;28;20475;-73
2024/02/15 12:37:06;;;;;;;1.20;0.90;;;22.50;92.00;;;;;;5054375;28;20468;-73
2024/02/15 12:39:33;;;;;;;2.87;1.67;;;21.50;92.90;;;;;;5054176;28;20475;-73
2024/02/15 12:41:59;;;;;;;2.40;1.07;;;21.40;93.50;;;;;;5053737;28;20464;-73
2024/02/15 12:44:30;;;;;;;1.50;1.20;;;21.50;93.30;;;;;;5052129;28;20482;-73
2024/02/15 12:46:57;;;;;;;1.43;1.30;;;22.10;93.40;;;;;;5053996;28;20494;-73
2024/02/15 12:49:34;;;;;;;1.70;1.00;;;22.30;93.40;;;;;;5053986;28;20822;-73
2024/02/15 12:52:35;;;;;;;1.20;0.90;;;22.30;93.10;;;;;;5053858;28;20962;-73
2024/02/15 12:55:13;;;;;;;2.30;1.20;;;22.60;93.10;;;;;;5041453;28;20761;-73
2024/02/15 12:57:44;;;;;;;1.27;1.17;;;22.60;93.60;;;;;;5053839;28;20508;-73
2024/02/15 13:00:17;;;;;;;1.00;0.90;;;22.70;92.60;;;;;;5054006;28;20454;-73
2024/02/15 13:02:45;;;;;;;1.07;0.90;;;22.40;92.30;;;;;;5049955;28;20474;-73
2024/02/15 13:05:13;;;;;;;1.23;1.00;;;21.90;92.10;;;;;;5053732;28;20456;-72
2024/02/15 13:07:40;;;;;;;1.70;1.03;;;21.30;92.80;;;;;;5052902;28;20915;-73
2024/02/15 13:10:08;;;;;;;1.43;1.00;;;21.00;92.80;;;;;;5053419;28;21002;-73
2024/02/15 13:12:36;;;;;;;1.37;1.17;;;20.60;92.70;;;;;;5053616;28;20483;-73
2024/02/15 13:15:04;;;;;;;1.00;0.90;;;20.00;94.10;;;;;;5053653;28;20456;-73
2024/02/15 13:17:31;;;;;;;4.30;1.50;;;19.60;95.40;;;;;;5053258;28;20894;-73
2024/02/15 13:20:04;;;;;;;3.60;1.40;;;19.30;95.60;;;;;;5053235;28;20460;-73
2024/02/15 13:22:33;;;;;;;1.37;1.23;;;19.00;96.30;;;;;;5053334;28;20459;-73
2024/02/15 13:25:00;;;;;;;1.33;1.00;;;18.70;97.00;;;;;;5053823;28;20470;-73
2024/02/15 13:27:27;;;;;;;3.00;1.20;;;18.30;97.30;;;;;;5053297;28;20482;-73